Time;durP1;ratioP1;P1;durP2;ratioP2;P2;SDS_P1;SDS_P2;PMS_P1;PMS_P2;Temp;Humidity;BMP_temperature;BMP_pressure;BME280_temperature;BME280_humidity;BME280_pressure;Samples;Min_cycle;Max_cycle;Signal;HPM_P1;HPM_P2
2021/08/13 00:01:35;;;;;;;;;;;;;;;24.49;37.00;95244.66;2162157;54;19966;-50
2021/08/13 00:03:37;;;;;;;;;;;;;;;24.46;36.96;95250.47;2161661;47;20002;-53
2021/08/13 00:05:39;;;;;;;;;;;;;;;24.40;37.30;95251.38;2161304;54;20066;-48
2021/08/13 00:07:41;;;;;;;;;;;;;;;24.36;36.97;95242.19;2161490;54;19999;-51
2021/08/13 00:09:42;;;;;;;;;;;;;;;24.42;36.99;95241.25;2161080;47;20034;-50
2021/08/13 00:11:44;;;;;;;;;;;;;;;24.37;36.80;95247.31;2162304;39;20442;-52
2021/08/13 00:13:45;;;;;;;;;;;;;;;24.39;37.21;95245.19;2162002;54;20024;-49
2021/08/13 00:15:47;;;;;;;;;;;;;;;24.42;36.67;95242.06;2161390;39;20061;-49
2021/08/13 00:17:49;;;;;;;;;;;;;;;24.45;36.60;95246.13;2162215;46;19975;-49
2021/08/13 00:19:50;;;;;;;;;;;;;;;24.42;36.54;95242.06;2161424;39;20087;-49
2021/08/13 00:21:52;;;;;;;;;;;;;;;24.40;36.43;95236.13;2162277;54;20001;-49
2021/08/13 00:23:54;;;;;;;;;;;;;;;24.41;36.83;95239.63;2162640;54;19994;-48
2021/08/13 00:25:55;;;;;;;;;;;;;;;24.32;36.91;95241.81;2162891;54;20042;-50
2021/08/13 00:27:57;;;;;;;;;;;;;;;24.24;36.85;95236.81;2161601;54;19970;-50
2021/08/13 00:29:59;;;;;;;;;;;;;;;24.15;36.93;95236.34;2162431;54;19950;-49
2021/08/13 00:32:00;;;;;;;;;;;;;;;24.07;37.46;95234.81;2162692;54;20072;-52
2021/08/13 00:34:02;;;;;;;;;;;;;;;24.05;37.16;95236.09;2162683;47;20030;-50
2021/08/13 00:36:03;;;;;;;;;;;;;;;24.02;37.51;95234.69;2162161;39;20180;-49
2021/08/13 00:38:05;;;;;;;;;;;;;;;23.91;37.39;95230.94;2161285;47;20030;-48
2021/08/13 00:40:07;;;;;;;;;;;;;;;23.86;37.63;95228.16;2162718;54;19947;-49
2021/08/13 00:42:09;;;;;;;;;;;;;;;23.82;37.99;95236.84;2162735;47;19959;-48
2021/08/13 00:44:10;;;;;;;;;;;;;;;23.79;38.00;95239.97;2162674;46;20438;-47
2021/08/13 00:46:13;;;;;;;;;;;;;;;23.78;38.13;95241.03;2162432;54;19994;-52
2021/08/13 00:48:14;;;;;;;;;;;;;;;23.73;38.07;95232.84;2162660;54;19998;-50
2021/08/13 00:50:16;;;;;;;;;;;;;;;23.78;37.75;95236.50;2161877;54;20017;-50
2021/08/13 00:52:18;;;;;;;;;;;;;;;23.76;37.84;95237.78;2161413;47;19995;-51
2021/08/13 00:54:19;;;;;;;;;;;;;;;23.71;38.04;95236.56;2162032;39;20503;-50
2021/08/13 00:56:21;;;;;;;;;;;;;;;23.71;37.70;95244.59;2162463;54;19990;-51
2021/08/13 00:58:22;;;;;;;;;;;;;;;23.73;38.02;95240.88;2161900;54;20030;-51
2021/08/13 01:00:24;;;;;;;;;;;;;;;23.69;37.79;95244.00;2161569;54;19970;-49
2021/08/13 01:02:26;;;;;;;;;;;;;;;23.71;37.79;95241.91;2163020;39;20392;-49
2021/08/13 01:04:27;;;;;;;;;;;;;;;23.68;37.47;95241.53;2162549;39;20328;-48
2021/08/13 01:06:29;;;;;;;;;;;;;;;23.69;37.80;95248.53;2162197;54;19955;-48
2021/08/13 01:08:31;;;;;;;;;;;;;;;23.66;37.92;95247.13;2162281;54;19947;-50
2021/08/13 01:10:33;;;;;;;;;;;;;;;23.59;37.93;95242.91;2162069;54;20003;-48
2021/08/13 01:12:38;;;;;;;;;;;;;;;23.64;37.42;95245.72;2162233;47;20002;-49
2021/08/13 01:14:42;;;;;;;;;;;;;;;23.63;37.85;95244.91;2162476;54;20058;-50
2021/08/13 01:16:44;;;;;;;;;;;;;;;23.63;37.97;95246.75;2162048;54;20235;-51
2021/08/13 01:18:50;;;;;;;;;;;;;;;23.61;37.57;95252.34;2161795;39;20126;-52
2021/08/13 01:21:12;;;;;;;;;;;;;;;23.62;37.85;95248.63;2160990;54;19950;-48
2021/08/13 01:23:17;;;;;;;;;;;;;;;23.62;37.73;95248.63;2161629;54;20103;-52
2021/08/13 01:25:20;;;;;;;;;;;;;;;23.61;37.78;95246.19;2162665;47;20624;-49
2021/08/13 01:27:27;;;;;;;;;;;;;;;23.58;37.32;95242.09;2161843;47;20028;-49
2021/08/13 01:29:34;;;;;;;;;;;;;;;23.66;37.32;95243.63;2161875;54;19950;-51
2021/08/13 01:32:05;;;;;;;;;;;;;;;23.72;37.54;95248.06;2162115;47;20002;-49
2021/08/13 01:34:06;;;;;;;;;;;;;;;23.70;37.46;95251.00;2158814;54;19955;-48
2021/08/13 01:36:08;;;;;;;;;;;;;;;23.64;37.42;95235.84;2161344;54;19989;-51
2021/08/13 01:38:13;;;;;;;;;;;;;;;23.64;37.66;95240.34;2161517;46;20061;-47
2021/08/13 01:40:15;;;;;;;;;;;;;;;23.68;37.30;95237.03;2162379;54;19982;-49
2021/08/13 01:42:16;;;;;;;;;;;;;;;23.68;37.38;95238.88;2162786;54;19994;-47
2021/08/13 01:44:18;;;;;;;;;;;;;;;23.73;37.32;95240.88;2161903;47;19950;-48
2021/08/13 01:46:20;;;;;;;;;;;;;;;23.73;37.24;95233.66;2161583;54;19947;-53
2021/08/13 01:48:23;;;;;;;;;;;;;;;23.73;37.45;95243.56;2162220;49;19947;-50
2021/08/13 01:50:24;;;;;;;;;;;;;;;23.76;36.90;95241.25;2162042;54;19954;-52
2021/08/13 01:52:26;;;;;;;;;;;;;;;23.67;37.53;95242.59;2161825;54;19946;-50
2021/08/13 01:54:28;;;;;;;;;;;;;;;23.64;36.98;95241.19;2161651;54;20503;-51
2021/08/13 01:56:29;;;;;;;;;;;;;;;23.57;37.17;95235.09;2161888;47;19957;-50
2021/08/13 01:58:31;;;;;;;;;;;;;;;23.62;37.03;95237.94;2162085;54;19950;-49
2021/08/13 02:00:33;;;;;;;;;;;;;;;23.53;37.60;95241.94;2161763;54;20038;-51
2021/08/13 02:02:35;;;;;;;;;;;;;;;23.55;37.70;95229.16;2161752;54;19947;-49
2021/08/13 02:04:38;;;;;;;;;;;;;;;23.57;37.28;95228.94;2161382;47;19953;-53
2021/08/13 02:06:40;;;;;;;;;;;;;;;23.55;37.19;95244.41;2162398;54;20503;-47
2021/08/13 02:08:41;;;;;;;;;;;;;;;23.56;37.64;95246.06;2162515;47;19990;-53
2021/08/13 02:10:43;;;;;;;;;;;;;;;23.41;37.40;95238.44;2161920;54;19994;-49
2021/08/13 02:12:45;;;;;;;;;;;;;;;23.37;37.87;95234.56;2162356;46;19999;-50
2021/08/13 02:14:47;;;;;;;;;;;;;;;23.35;37.56;95234.78;2162309;54;19947;-52
2021/08/13 02:16:50;;;;;;;;;;;;;;;23.31;37.84;95242.44;2162504;47;19946;-49
2021/08/13 02:18:54;;;;;;;;;;;;;;;23.33;37.74;95236.88;2161491;54;19958;-50
2021/08/13 02:20:56;;;;;;;;;;;;;;;23.36;37.61;95238.28;2161199;54;19950;-51
2021/08/13 02:22:58;;;;;;;;;;;;;;;23.39;37.53;95237.84;2161744;54;19946;-50
2021/08/13 02:25:00;;;;;;;;;;;;;;;23.39;37.62;95238.66;2162942;39;20703;-50
2021/08/13 02:27:01;;;;;;;;;;;;;;;23.38;37.64;95241.53;2161841;47;19968;-51
2021/08/13 02:29:03;;;;;;;;;;;;;;;23.42;37.51;95237.38;2162639;54;20002;-48
2021/08/13 02:31:05;;;;;;;;;;;;;;;23.47;37.54;95240.22;2162601;54;19959;-51
2021/08/13 02:33:07;;;;;;;;;;;;;;;23.54;37.45;95243.59;2161946;54;20059;-51
2021/08/13 02:35:09;;;;;;;;;;;;;;;23.49;37.58;95243.47;2161717;47;19954;-53
2021/08/13 02:37:13;;;;;;;;;;;;;;;23.48;37.57;95242.63;2162415;54;19950;-51
2021/08/13 02:39:33;;;;;;;;;;;;;;;23.30;38.07;95243.50;2161411;54;20031;-50
2021/08/13 02:41:35;;;;;;;;;;;;;;;22.75;39.40;95246.16;2161884;47;20065;-49
2021/08/13 02:43:42;;;;;;;;;;;;;;;22.60;39.71;95251.03;2162509;54;19951;-50
2021/08/13 02:45:44;;;;;;;;;;;;;;;22.56;39.71;95255.19;2161561;54;20022;-49
2021/08/13 02:47:46;;;;;;;;;;;;;;;22.59;39.20;95255.56;2161601;54;20046;-49
2021/08/13 02:49:48;;;;;;;;;;;;;;;22.74;39.32;95255.22;2161266;39;20268;-49
2021/08/13 02:51:52;;;;;;;;;;;;;;;22.73;39.01;95264.25;2162542;54;19950;-52
2021/08/13 02:53:54;;;;;;;;;;;;;;;22.78;39.18;95253.72;2162185;54;20064;-48
2021/08/13 02:56:02;;;;;;;;;;;;;;;22.84;38.76;95250.19;2161734;54;19968;-50
2021/08/13 02:58:04;;;;;;;;;;;;;;;22.90;38.37;95257.28;2161730;54;19950;-50
2021/08/13 03:00:06;;;;;;;;;;;;;;;22.90;38.63;95259.94;2161535;54;19974;-50
2021/08/13 03:02:08;;;;;;;;;;;;;;;22.95;38.48;95256.63;2162391;54;19950;-48
2021/08/13 03:04:10;;;;;;;;;;;;;;;22.89;39.02;95260.19;2161774;46;20448;-48
2021/08/13 03:06:12;;;;;;;;;;;;;;;22.41;39.73;95266.19;2161132;54;19951;-50
2021/08/13 03:08:13;;;;;;;;;;;;;;;22.32;40.35;95260.31;2162384;47;19947;-48
2021/08/13 03:10:15;;;;;;;;;;;;;;;22.42;40.31;95263.31;2161554;54;19987;-51
2021/08/13 03:12:17;;;;;;;;;;;;;;;22.52;40.04;95265.50;2161800;54;19946;-48
2021/08/13 03:14:19;;;;;;;;;;;;;;;22.69;39.87;95271.06;2162696;54;19951;-47
2021/08/13 03:16:20;;;;;;;;;;;;;;;22.75;39.83;95272.03;2161573;47;20048;-50
2021/08/13 03:18:22;;;;;;;;;;;;;;;22.73;39.53;95272.25;2161756;51;20071;-50
2021/08/13 03:20:24;;;;;;;;;;;;;;;22.62;40.06;95275.66;2161165;54;20514;-48
2021/08/13 03:22:25;;;;;;;;;;;;;;;22.53;40.02;95272.47;2162287;54;19998;-48
2021/08/13 03:24:28;;;;;;;;;;;;;;;22.55;39.99;95267.72;2161441;54;20318;-50
2021/08/13 03:26:29;;;;;;;;;;;;;;;22.57;41.15;95273.66;2162406;54;19995;-49
2021/08/13 03:28:31;;;;;;;;;;;;;;;22.36;42.76;95268.72;2161576;54;19950;-51
2021/08/13 03:30:51;;;;;;;;;;;;;;;22.05;44.34;95270.38;2162456;47;19954;-49
2021/08/13 03:32:52;;;;;;;;;;;;;;;21.87;45.00;95273.75;2162384;54;19974;-49
2021/08/13 03:34:54;;;;;;;;;;;;;;;21.74;45.77;95269.31;2160988;54;19947;-49
2021/08/13 03:36:57;;;;;;;;;;;;;;;21.61;46.34;95272.06;2161713;47;20557;-49
2021/08/13 03:38:59;;;;;;;;;;;;;;;21.52;46.86;95273.38;2161893;54;19998;-52
2021/08/13 03:41:00;;;;;;;;;;;;;;;21.54;46.64;95272.13;2162656;54;21745;-49
2021/08/13 03:43:03;;;;;;;;;;;;;;;21.71;46.48;95276.97;2161898;54;20381;-50
2021/08/13 03:45:04;;;;;;;;;;;;;;;21.82;46.36;95270.94;2161747;47;20038;-48
2021/08/13 03:47:06;;;;;;;;;;;;;;;21.96;45.98;95266.31;2162387;54;20794;-48
2021/08/13 03:49:08;;;;;;;;;;;;;;;22.15;45.34;95273.34;2162366;47;19999;-49
2021/08/13 03:51:09;;;;;;;;;;;;;;;22.29;45.13;95272.25;2161264;47;20078;-50
2021/08/13 03:53:11;;;;;;;;;;;;;;;22.41;44.91;95275.03;2162137;54;19970;-48
2021/08/13 03:55:13;;;;;;;;;;;;;;;22.52;44.94;95278.00;2161560;54;19947;-49
2021/08/13 03:57:15;;;;;;;;;;;;;;;22.62;44.63;95270.31;2161763;54;20034;-49
2021/08/13 03:59:17;;;;;;;;;;;;;;;22.74;44.56;95289.94;2162700;47;19947;-49
2021/08/13 04:01:18;;;;;;;;;;;;;;;22.87;44.09;95280.97;2162697;54;19971;-48
2021/08/13 04:03:20;;;;;;;;;;;;;;;22.97;43.89;95272.44;2162482;47;20041;-51
2021/08/13 04:05:22;;;;;;;;;;;;;;;22.99;43.88;95281.03;2162126;54;19947;-51
2021/08/13 04:07:24;;;;;;;;;;;;;;;23.02;43.74;95280.66;2163033;47;19995;-52
2021/08/13 04:09:25;;;;;;;;;;;;;;;23.01;43.58;95279.00;2162951;54;19946;-47
2021/08/13 04:11:27;;;;;;;;;;;;;;;22.97;43.79;95278.56;2162999;54;20079;-50
2021/08/13 04:13:29;;;;;;;;;;;;;;;22.95;44.07;95274.50;2163404;54;19988;-49
2021/08/13 04:15:30;;;;;;;;;;;;;;;22.93;44.29;95276.56;2163437;39;20348;-46
2021/08/13 04:17:32;;;;;;;;;;;;;;;22.97;44.22;95275.09;2163332;47;19958;-51
2021/08/13 04:19:34;;;;;;;;;;;;;;;23.02;43.85;95286.78;2162143;54;20010;-55
2021/08/13 04:21:35;;;;;;;;;;;;;;;23.06;43.57;95281.84;2162580;54;19995;-49
2021/08/13 04:23:37;;;;;;;;;;;;;;;23.10;43.62;95283.84;2163133;54;20030;-49
2021/08/13 04:25:39;;;;;;;;;;;;;;;23.03;43.66;95283.06;2163502;54;19951;-52
2021/08/13 04:27:40;;;;;;;;;;;;;;;23.08;43.36;95285.06;2163082;54;19954;-50
2021/08/13 04:29:42;;;;;;;;;;;;;;;23.20;42.82;95288.63;2163095;54;19951;-53
2021/08/13 04:31:43;;;;;;;;;;;;;;;23.11;43.31;95292.66;2162829;54;19950;-47
2021/08/13 04:33:45;;;;;;;;;;;;;;;23.03;43.32;95288.41;2162476;54;20060;-49
2021/08/13 04:35:47;;;;;;;;;;;;;;;23.01;44.00;95284.34;2162194;54;19946;-47
2021/08/13 04:37:48;;;;;;;;;;;;;;;23.15;43.68;95301.06;2163152;54;20109;-50
2021/08/13 04:39:51;;;;;;;;;;;;;;;23.24;43.05;95297.84;2163038;47;19946;-50
2021/08/13 04:41:53;;;;;;;;;;;;;;;23.34;42.62;95301.84;2163329;47;20058;-51
2021/08/13 04:43:55;;;;;;;;;;;;;;;23.35;42.38;95303.50;2162997;54;19965;-49
2021/08/13 04:45:57;;;;;;;;;;;;;;;23.36;42.42;95305.09;2162828;46;19951;-49
2021/08/13 04:47:58;;;;;;;;;;;;;;;23.40;42.63;95300.94;2163477;39;20292;-51
2021/08/13 04:50:00;;;;;;;;;;;;;;;23.47;42.54;95304.38;2161785;54;19954;-49
2021/08/13 04:52:04;;;;;;;;;;;;;;;23.49;42.95;95302.28;2162930;47;20416;-50
2021/08/13 04:54:06;;;;;;;;;;;;;;;23.58;42.26;95305.47;2162724;54;19946;-53
2021/08/13 04:56:07;;;;;;;;;;;;;;;23.57;41.82;95298.47;2161604;54;20002;-49
2021/08/13 04:58:09;;;;;;;;;;;;;;;23.59;41.92;95291.84;2162291;39;20339;-52
2021/08/13 05:00:11;;;;;;;;;;;;;;;23.69;41.92;95291.34;2163148;39;20510;-50
2021/08/13 05:02:13;;;;;;;;;;;;;;;23.76;41.30;95296.63;2162840;39;20240;-51
2021/08/13 05:04:16;;;;;;;;;;;;;;;23.77;41.82;95293.72;2162789;54;19994;-50
2021/08/13 05:06:18;;;;;;;;;;;;;;;23.74;42.30;95293.31;2162102;54;19947;-54
2021/08/13 05:08:20;;;;;;;;;;;;;;;23.64;42.18;95296.53;2162713;54;20017;-48
2021/08/13 05:10:22;;;;;;;;;;;;;;;23.69;42.25;95296.69;2162680;46;19978;-51
2021/08/13 05:12:23;;;;;;;;;;;;;;;23.75;41.67;95297.63;2162601;54;19994;-49
2021/08/13 05:14:25;;;;;;;;;;;;;;;23.57;42.69;95301.97;2162366;54;19946;-51
2021/08/13 05:16:27;;;;;;;;;;;;;;;23.36;43.68;95299.75;2162209;54;19946;-52
2021/08/13 05:18:28;;;;;;;;;;;;;;;23.37;43.50;95301.41;2162363;54;20502;-50
2021/08/13 05:20:30;;;;;;;;;;;;;;;23.08;43.20;95306.44;2161905;47;20038;-51
2021/08/13 05:22:35;;;;;;;;;;;;;;;22.59;43.99;95303.63;2162721;54;20178;-50
2021/08/13 05:24:37;;;;;;;;;;;;;;;22.28;44.81;95307.16;2162345;39;20444;-52
2021/08/13 05:26:41;;;;;;;;;;;;;;;21.96;45.50;95299.16;2162576;46;20583;-53
2021/08/13 05:28:42;;;;;;;;;;;;;;;21.91;45.88;95303.50;2162574;54;20453;-50
2021/08/13 05:30:44;;;;;;;;;;;;;;;21.63;46.37;95310.81;2162623;54;20082;-50
2021/08/13 05:32:50;;;;;;;;;;;;;;;21.25;47.54;95313.41;2162805;47;20437;-51
2021/08/13 05:34:52;;;;;;;;;;;;;;;21.35;47.88;95310.31;2162019;39;20384;-50
2021/08/13 05:36:53;;;;;;;;;;;;;;;21.74;46.75;95308.50;2163032;39;20371;-50
2021/08/13 05:38:55;;;;;;;;;;;;;;;21.98;46.52;95301.59;2162241;54;20038;-49
2021/08/13 05:40:56;;;;;;;;;;;;;;;22.15;46.30;95302.72;2161780;54;20058;-50
2021/08/13 05:42:59;;;;;;;;;;;;;;;22.38;45.51;95302.16;2162714;54;20061;-52
2021/08/13 05:45:01;;;;;;;;;;;;;;;22.55;45.61;95298.94;2162288;54;19951;-50
2021/08/13 05:47:02;;;;;;;;;;;;;;;22.67;45.07;95303.34;2162518;47;20465;-51
2021/08/13 05:49:04;;;;;;;;;;;;;;;22.80;44.67;95317.59;2162592;54;19964;-52
2021/08/13 05:51:06;;;;;;;;;;;;;;;22.93;44.86;95313.97;2161845;47;20090;-51
2021/08/13 05:53:07;;;;;;;;;;;;;;;22.79;45.10;95321.31;2162536;54;19994;-51
2021/08/13 05:55:09;;;;;;;;;;;;;;;22.85;44.24;95323.94;2162375;54;19950;-50
2021/08/13 05:57:11;;;;;;;;;;;;;;;22.92;44.27;95323.03;2162090;54;19943;-52
2021/08/13 05:59:13;;;;;;;;;;;;;;;23.01;43.26;95325.22;2161926;54;20006;-48
2021/08/13 06:01:14;;;;;;;;;;;;;;;22.93;42.81;95328.19;2162260;47;19998;-51
2021/08/13 06:03:16;;;;;;;;;;;;;;;23.17;42.91;95334.53;2162382;47;19954;-51
2021/08/13 06:05:22;;;;;;;;;;;;;;;22.81;43.36;95322.72;2162231;46;19953;-51
2021/08/13 06:07:24;;;;;;;;;;;;;;;22.78;43.90;95322.34;2162897;54;20002;-48
2021/08/13 06:09:26;;;;;;;;;;;;;;;22.89;44.00;95324.31;2162533;47;19954;-51
2021/08/13 06:11:27;;;;;;;;;;;;;;;23.12;42.92;95331.69;2162588;47;20062;-50
2021/08/13 06:13:29;;;;;;;;;;;;;;;23.27;42.81;95323.31;2162228;54;19950;-50
2021/08/13 06:15:30;;;;;;;;;;;;;;;23.20;42.64;95323.38;2162560;47;20546;-49
2021/08/13 06:17:32;;;;;;;;;;;;;;;23.17;43.21;95331.88;2162397;54;19947;-54
2021/08/13 06:19:34;;;;;;;;;;;;;;;23.16;42.99;95330.22;2162031;54;19970;-50
2021/08/13 06:21:35;;;;;;;;;;;;;;;23.35;42.81;95322.22;2162029;54;20042;-49
2021/08/13 06:23:37;;;;;;;;;;;;;;;23.30;42.39;95329.03;2162209;54;20030;-51
2021/08/13 06:25:39;;;;;;;;;;;;;;;23.28;41.97;95328.44;2162551;47;19971;-50
2021/08/13 06:27:41;;;;;;;;;;;;;;;23.28;42.71;95320.41;2162522;54;19957;-49
2021/08/13 06:29:43;;;;;;;;;;;;;;;23.29;42.11;95327.38;2162294;47;20498;-53
2021/08/13 06:31:45;;;;;;;;;;;;;;;23.62;41.26;95328.06;2162316;54;19954;-51
2021/08/13 06:33:46;;;;;;;;;;;;;;;23.46;41.84;95324.94;2161683;47;20837;-52
2021/08/13 06:35:48;;;;;;;;;;;;;;;23.49;40.95;95326.38;2161280;47;20034;-47
2021/08/13 06:37:50;;;;;;;;;;;;;;;23.57;40.94;95334.06;2162577;39;20336;-49
2021/08/13 06:39:53;;;;;;;;;;;;;;;23.62;40.98;95334.22;2162285;47;19951;-53
2021/08/13 06:41:54;;;;;;;;;;;;;;;23.43;40.52;95324.59;2162519;47;19946;-50
2021/08/13 06:43:56;;;;;;;;;;;;;;;23.33;41.13;95329.63;2162133;54;20419;-51
2021/08/13 06:45:58;;;;;;;;;;;;;;;23.47;40.84;95329.25;2162683;39;20029;-51
2021/08/13 06:47:59;;;;;;;;;;;;;;;23.13;41.47;95328.00;2162659;39;20335;-48
2021/08/13 06:50:01;;;;;;;;;;;;;;;23.45;40.75;95328.66;2161524;47;19946;-50
2021/08/13 06:52:03;;;;;;;;;;;;;;;23.63;40.73;95327.81;2162669;47;19971;-49
2021/08/13 06:54:05;;;;;;;;;;;;;;;23.90;40.03;95327.50;2162199;47;19977;-49
2021/08/13 06:56:06;;;;;;;;;;;;;;;23.98;40.24;95329.03;2161769;47;20239;-48
2021/08/13 06:58:08;;;;;;;;;;;;;;;23.86;40.24;95342.38;2161380;54;20063;-49
2021/08/13 07:00:10;;;;;;;;;;;;;;;23.80;40.75;95343.28;2161850;54;19950;-52
2021/08/13 07:02:12;;;;;;;;;;;;;;;23.92;40.39;95349.50;2162368;47;19990;-50
2021/08/13 07:04:14;;;;;;;;;;;;;;;23.56;40.94;95351.16;2162493;54;19990;-52
2021/08/13 07:06:16;;;;;;;;;;;;;;;23.52;41.19;95353.44;2161522;47;19958;-51
2021/08/13 07:08:17;;;;;;;;;;;;;;;23.54;40.96;95353.25;2162144;54;19958;-47
2021/08/13 07:10:19;;;;;;;;;;;;;;;23.54;41.27;95341.72;2162572;47;19958;-56
2021/08/13 07:12:20;;;;;;;;;;;;;;;23.78;41.25;95342.69;2162468;54;19958;-48
2021/08/13 07:14:22;;;;;;;;;;;;;;;23.83;40.48;95345.50;2162490;47;20007;-48
2021/08/13 07:16:24;;;;;;;;;;;;;;;24.15;39.94;95335.38;2162238;54;19953;-51
2021/08/13 07:18:25;;;;;;;;;;;;;;;24.53;39.18;95334.22;2161307;54;19950;-49
2021/08/13 07:20:27;;;;;;;;;;;;;;;24.20;38.43;95335.53;2161482;54;19951;-47
2021/08/13 07:22:29;;;;;;;;;;;;;;;23.98;39.61;95343.22;2162258;54;20022;-51
2021/08/13 07:24:31;;;;;;;;;;;;;;;24.15;39.17;95346.06;2161687;54;19946;-50
2021/08/13 07:26:33;;;;;;;;;;;;;;;24.23;39.85;95331.56;2162186;47;19950;-48
2021/08/13 07:28:34;;;;;;;;;;;;;;;24.54;39.19;95333.16;2162686;39;20474;-49
2021/08/13 07:30:36;;;;;;;;;;;;;;;24.65;38.24;95335.06;2162070;54;20435;-50
2021/08/13 07:32:38;;;;;;;;;;;;;;;24.60;38.20;95339.47;2161390;54;19999;-49
2021/08/13 07:34:39;;;;;;;;;;;;;;;24.69;37.77;95338.06;2161718;47;19954;-46
2021/08/13 07:36:41;;;;;;;;;;;;;;;24.38;38.30;95333.81;2161990;54;20604;-50
2021/08/13 07:38:43;;;;;;;;;;;;;;;24.46;38.15;95339.66;2162285;54;20002;-49
2021/08/13 07:40:44;;;;;;;;;;;;;;;24.41;38.74;95331.47;2162037;47;19954;-49
2021/08/13 07:42:46;;;;;;;;;;;;;;;24.67;37.86;95335.63;2162080;54;19954;-49
2021/08/13 07:44:48;;;;;;;;;;;;;;;24.88;37.62;95336.91;2162153;46;19990;-51
2021/08/13 07:46:50;;;;;;;;;;;;;;;25.03;37.58;95332.94;2162312;54;20048;-52
2021/08/13 07:48:52;;;;;;;;;;;;;;;25.07;37.16;95334.91;2162566;46;20053;-51
2021/08/13 07:50:54;;;;;;;;;;;;;;;25.13;37.17;95323.25;2161572;54;20054;-52
2021/08/13 07:52:55;;;;;;;;;;;;;;;25.41;36.68;95328.97;2162223;54;19947;-50
2021/08/13 07:54:57;;;;;;;;;;;;;;;25.59;35.66;95319.94;2162506;47;19959;-49
2021/08/13 07:56:59;;;;;;;;;;;;;;;25.93;35.38;95321.72;2162565;47;19954;-51
2021/08/13 07:59:00;;;;;;;;;;;;;;;26.08;35.13;95328.41;2161483;54;20591;-49
2021/08/13 08:01:02;;;;;;;;;;;;;;;25.75;35.55;95329.94;2161397;47;19978;-53
2021/08/13 08:03:04;;;;;;;;;;;;;;;25.91;35.42;95331.06;2162387;39;20272;-47
2021/08/13 08:05:05;;;;;;;;;;;;;;;26.13;33.94;95329.31;2161617;39;20010;-52
2021/08/13 08:07:07;;;;;;;;;;;;;;;26.30;33.98;95337.41;2162083;54;20052;-52
2021/08/13 08:09:09;;;;;;;;;;;;;;;26.44;33.60;95337.91;2162105;54;19939;-50
2021/08/13 08:11:10;;;;;;;;;;;;;;;26.64;33.10;95337.47;2162708;31;20434;-49
2021/08/13 08:13:13;;;;;;;;;;;;;;;26.67;33.83;95344.22;2161760;39;20399;-53
2021/08/13 08:15:15;;;;;;;;;;;;;;;26.58;34.06;95337.63;2161184;54;20011;-53
2021/08/13 08:17:17;;;;;;;;;;;;;;;26.59;33.69;95347.31;2161742;54;19946;-52
2021/08/13 08:19:18;;;;;;;;;;;;;;;26.49;33.61;95339.88;2162055;54;20024;-51
2021/08/13 08:21:20;;;;;;;;;;;;;;;26.43;33.29;95348.91;2161411;47;20054;-52
2021/08/13 08:23:21;;;;;;;;;;;;;;;26.00;33.17;95348.41;2161398;47;19950;-50
2021/08/13 08:25:23;;;;;;;;;;;;;;;25.81;33.92;95346.94;2161727;54;19950;-50
2021/08/13 08:27:25;;;;;;;;;;;;;;;26.22;33.87;95347.72;2162582;47;20558;-53
2021/08/13 08:29:26;;;;;;;;;;;;;;;26.08;34.03;95349.91;2162099;39;20412;-49
2021/08/13 08:31:28;;;;;;;;;;;;;;;25.93;34.12;95353.09;2162237;47;21602;-52
2021/08/13 08:33:30;;;;;;;;;;;;;;;25.97;34.38;95340.03;2162006;54;20702;-51
2021/08/13 08:35:31;;;;;;;;;;;;;;;26.13;34.21;95337.38;2161686;54;19974;-51
2021/08/13 08:37:33;;;;;;;;;;;;;;;26.40;33.30;95339.47;2161716;47;19954;-48
2021/08/13 08:39:35;;;;;;;;;;;;;;;26.80;32.99;95335.81;2161885;47;19958;-50
2021/08/13 08:41:37;;;;;;;;;;;;;;;26.87;32.52;95341.06;2162373;54;19950;-52
2021/08/13 08:43:39;;;;;;;;;;;;;;;27.07;32.34;95329.78;2162225;47;19955;-50
2021/08/13 08:45:40;;;;;;;;;;;;;;;26.99;32.27;95328.31;2162203;47;20053;-48
2021/08/13 08:47:42;;;;;;;;;;;;;;;27.27;32.03;95330.06;2163015;54;20031;-53
2021/08/13 08:49:46;;;;;;;;;;;;;;;27.51;31.95;95335.22;2161601;54;20728;-52
2021/08/13 08:51:47;;;;;;;;;;;;;;;27.64;31.44;95337.56;2162903;46;20008;-51
2021/08/13 08:53:50;;;;;;;;;;;;;;;27.90;31.25;95327.09;2161966;54;19991;-49
2021/08/13 08:55:52;;;;;;;;;;;;;;;28.10;30.89;95327.31;2162975;54;19955;-48
2021/08/13 08:57:54;;;;;;;;;;;;;;;28.27;30.65;95321.03;2162822;47;19953;-48
2021/08/13 08:59:57;;;;;;;;;;;;;;;28.34;30.41;95327.00;2161792;54;20442;-49
2021/08/13 09:01:59;;;;;;;;;;;;;;;28.37;30.14;95327.31;2162127;54;19953;-51
2021/08/13 09:04:01;;;;;;;;;;;;;;;27.99;30.30;95333.66;2162666;46;19976;-48
2021/08/13 09:06:03;;;;;;;;;;;;;;;27.71;30.90;95330.09;2161849;54;20036;-50
2021/08/13 09:08:05;;;;;;;;;;;;;;;27.78;31.12;95328.00;2162486;54;20465;-51
2021/08/13 09:10:07;;;;;;;;;;;;;;;27.52;31.72;95328.78;2162517;54;19979;-50
2021/08/13 09:12:09;;;;;;;;;;;;;;;27.69;31.12;95331.41;2162472;46;19998;-52
2021/08/13 09:14:11;;;;;;;;;;;;;;;27.80;31.05;95329.66;2162346;54;19951;-47
2021/08/13 09:16:16;;;;;;;;;;;;;;;27.65;31.04;95324.91;2162568;54;19954;-50
2021/08/13 09:18:24;;;;;;;;;;;;;;;27.64;31.28;95339.41;2162620;47;20475;-50
2021/08/13 09:20:36;;;;;;;;;;;;;;;27.52;30.91;95324.22;2162163;47;19998;-51
2021/08/13 09:22:41;;;;;;;;;;;;;;;27.88;31.29;95321.97;2162534;47;19950;-49
2021/08/13 09:24:44;;;;;;;;;;;;;;;28.17;30.92;95319.03;2162797;46;19985;-53
2021/08/13 09:26:45;;;;;;;;;;;;;;;28.27;30.67;95321.03;2162420;54;19971;-51
2021/08/13 09:28:47;;;;;;;;;;;;;;;27.64;31.01;95321.41;2162223;54;19946;-49
2021/08/13 09:30:48;;;;;;;;;;;;;;;27.29;31.56;95325.25;2162287;54;20061;-50
2021/08/13 09:33:00;;;;;;;;;;;;;;;27.23;31.69;95326.25;2162077;46;19999;-49
2021/08/13 09:35:03;;;;;;;;;;;;;;;27.58;31.24;95328.59;2161842;47;19994;-49
2021/08/13 09:37:04;;;;;;;;;;;;;;;27.98;30.81;95326.63;2162367;54;19950;-51
2021/08/13 09:39:07;;;;;;;;;;;;;;;28.34;30.59;95332.38;2161194;54;20389;-51
2021/08/13 09:41:10;;;;;;;;;;;;;;;28.63;29.89;95324.03;2162475;47;20002;-52
2021/08/13 09:43:12;;;;;;;;;;;;;;;28.81;29.48;95323.66;2162679;47;20001;-48
2021/08/13 09:45:13;;;;;;;;;;;;;;;28.78;29.84;95324.97;2161726;54;19966;-52
2021/08/13 09:47:16;;;;;;;;;;;;;;;28.29;30.44;95324.28;2162539;54;20491;-50
2021/08/13 09:49:18;;;;;;;;;;;;;;;28.15;31.03;95327.34;2162280;47;19955;-49
2021/08/13 09:51:33;;;;;;;;;;;;;;;27.85;31.54;95324.31;2161163;54;20054;-48
2021/08/13 09:53:34;;;;;;;;;;;;;;;27.98;31.15;95326.63;2162790;47;19958;-50
2021/08/13 09:55:36;;;;;;;;;;;;;;;28.38;30.46;95328.13;2162036;39;20405;-51
2021/08/13 09:57:42;;;;;;;;;;;;;;;28.27;30.68;95326.41;2162762;54;19955;-51
2021/08/13 10:00:00;;;;;;;;;;;;;;;28.23;30.75;95333.38;2162361;39;20360;-48
2021/08/13 10:02:12;;;;;;;;;;;;;;;28.08;31.10;95321.38;2161652;54;20062;-49
2021/08/13 10:04:14;;;;;;;;;;;;;;;28.23;31.05;95319.91;2162410;54;19953;-47
2021/08/13 10:06:16;;;;;;;;;;;;;;;27.98;30.91;95326.63;2161748;47;20464;-50
2021/08/13 10:08:17;;;;;;;;;;;;;;;28.37;30.76;95316.53;2161542;54;19947;-47
2021/08/13 10:10:27;;;;;;;;;;;;;;;28.18;31.02;95312.59;2161679;54;19946;-50
2021/08/13 10:12:28;;;;;;;;;;;;;;;28.14;31.52;95314.16;2162379;54;20004;-48
2021/08/13 10:14:31;;;;;;;;;;;;;;;28.40;31.05;95315.22;2161968;54;20030;-49
2021/08/13 10:16:33;;;;;;;;;;;;;;;28.53;30.65;95316.69;2162399;47;19953;-52
2021/08/13 10:18:36;;;;;;;;;;;;;;;28.54;30.38;95313.72;2162283;54;19951;-51
2021/08/13 10:20:42;;;;;;;;;;;;;;;28.76;30.43;95319.03;2161933;54;19951;-53
2021/08/13 10:22:43;;;;;;;;;;;;;;;28.88;29.90;95316.13;2162355;46;19990;-50
2021/08/13 10:24:46;;;;;;;;;;;;;;;29.17;29.92;95318.53;2162473;46;19998;-53
2021/08/13 10:26:48;;;;;;;;;;;;;;;29.44;29.47;95312.19;2162496;54;19962;-51
2021/08/13 10:28:50;;;;;;;;;;;;;;;29.57;29.08;95323.28;2162238;54;19994;-54
2021/08/13 10:30:51;;;;;;;;;;;;;;;29.81;29.08;95314.75;2162443;54;20050;-51
2021/08/13 10:32:56;;;;;;;;;;;;;;;29.99;28.64;95313.47;2162670;39;20343;-51
2021/08/13 10:34:58;;;;;;;;;;;;;;;30.01;28.38;95311.31;2161793;54;19951;-48
2021/08/13 10:37:02;;;;;;;;;;;;;;;30.12;28.66;95307.56;2162354;54;20038;-50
2021/08/13 10:39:03;;;;;;;;;;;;;;;30.31;28.30;95304.34;2161830;46;20100;-53